Time;durP1;ratioP1;P1;durP2;ratioP2;P2;SDS_P1;SDS_P2;PMS_P1;PMS_P2;Temp;Humidity;BMP_temperature;BMP_pressure;BME280_temperature;BME280_humidity;BME280_pressure;Samples;Min_cycle;Max_cycle;Signal;HPM_P1;HPM_P2
2023/07/14 00:00:32;;;;;;;2.53;1.80;;;19.30;1.00;;;;;;5136340;28;20179;-56
2023/07/14 00:02:58;;;;;;;3.03;1.90;;;19.30;1.00;;;;;;5136815;28;20408;-53
2023/07/14 00:05:31;;;;;;;3.07;2.33;;;19.20;1.00;;;;;;5114997;28;20426;-57
2023/07/14 00:07:57;;;;;;;1.97;1.53;;;19.20;1.00;;;;;;5116968;28;20473;-54
2023/07/14 00:10:31;;;;;;;2.90;2.00;;;19.20;1.00;;;;;;5119309;28;20433;-52
2023/07/14 00:13:10;;;;;;;3.30;1.87;;;19.20;1.00;;;;;;5132471;27;20439;-56
2023/07/14 00:15:37;;;;;;;2.00;1.50;;;19.20;1.00;;;;;;5140189;27;20888;-55
2023/07/14 00:18:25;;;;;;;2.67;2.23;;;19.20;1.00;;;;;;5140460;27;20413;-57
2023/07/14 00:20:51;;;;;;;3.13;1.93;;;19.20;1.00;;;;;;5140641;27;20674;-57
2023/07/14 00:23:17;;;;;;;2.53;2.33;;;19.10;1.00;;;;;;5101598;28;20429;-54
2023/07/14 00:25:43;;;;;;;2.83;1.90;;;19.10;1.00;;;;;;5137686;27;20439;-55
2023/07/14 00:28:20;;;;;;;3.40;2.33;;;19.10;1.00;;;;;;5138735;27;20432;-53
2023/07/14 00:30:47;;;;;;;2.20;1.97;;;19.10;1.00;;;;;;5138145;27;20423;-52
2023/07/14 00:33:15;;;;;;;2.80;2.17;;;19.00;1.00;;;;;;5138046;27;20446;-56
2023/07/14 00:35:41;;;;;;;3.53;2.50;;;19.00;1.00;;;;;;5138219;27;20467;-58
2023/07/14 00:38:07;;;;;;;3.50;2.47;;;19.00;1.00;;;;;;5138956;27;20545;-56
2023/07/14 00:40:40;;;;;;;2.77;2.13;;;19.00;1.00;;;;;;5138508;27;20420;-55
2023/07/14 00:43:11;;;;;;;3.70;2.57;;;18.90;1.00;;;;;;5117778;28;20429;-56
2023/07/14 00:45:37;;;;;;;3.33;2.40;;;18.90;1.00;;;;;;5119466;27;20512;-57
2023/07/14 00:48:04;;;;;;;2.03;1.83;;;18.90;1.00;;;;;;5139905;27;20464;-57
2023/07/14 00:50:49;;;;;;;2.90;1.80;;;18.90;1.00;;;;;;5139754;27;20186;-55
2023/07/14 00:53:18;;;;;;;2.70;2.20;;;18.90;1.00;;;;;;5118302;28;20456;-56
2023/07/14 00:55:58;;;;;;;6.80;2.20;;;18.90;1.00;;;;;;5138524;27;20471;-58
2023/07/14 00:58:26;;;;;;;2.63;2.20;;;18.90;1.00;;;;;;5140108;27;20432;-55
2023/07/14 01:01:10;;;;;;;2.47;2.10;;;18.80;1.00;;;;;;5140011;27;20509;-55
2023/07/14 01:03:41;;;;;;;1.97;1.80;;;18.90;1.00;;;;;;5139873;27;20434;-54
2023/07/14 01:06:25;;;;;;;2.50;1.87;;;18.80;1.00;;;;;;5139866;27;20419;-56
2023/07/14 01:09:07;;;;;;;2.23;1.70;;;18.70;1.00;;;;;;5138536;27;20999;-57
2023/07/14 01:11:41;;;;;;;2.60;1.97;;;18.70;1.00;;;;;;5116398;27;20727;-55
2023/07/14 01:14:16;;;;;;;2.70;2.50;;;18.70;1.00;;;;;;5115217;28;20516;-55
2023/07/14 01:16:42;;;;;;;3.80;2.50;;;18.70;1.00;;;;;;5117150;27;20448;-52
2023/07/14 01:19:30;;;;;;;2.57;2.00;;;18.60;1.00;;;;;;5136686;27;20435;-54
2023/07/14 01:22:12;;;;;;;3.27;2.70;;;18.60;1.00;;;;;;5136766;27;20425;-54
2023/07/14 01:24:46;;;;;;;4.00;2.40;;;18.60;1.00;;;;;;5138112;27;20415;-54
2023/07/14 01:27:12;;;;;;;3.27;2.53;;;18.60;1.00;;;;;;5139270;27;20451;-52
2023/07/14 01:29:38;;;;;;;4.90;2.33;;;18.50;1.00;;;;;;5119022;27;20801;-55
2023/07/14 01:32:18;;;;;;;2.83;2.20;;;18.50;1.00;;;;;;5139917;27;20206;-52
2023/07/14 01:34:44;;;;;;;3.63;2.87;;;18.50;1.00;;;;;;5139364;27;20203;-53
2023/07/14 01:37:12;;;;;;;2.80;2.13;;;18.50;1.00;;;;;;5117370;28;20421;-53
2023/07/14 01:39:39;;;;;;;3.53;2.40;;;18.50;1.00;;;;;;5118762;27;20406;-54
2023/07/14 01:42:05;;;;;;;3.13;2.33;;;18.50;1.00;;;;;;5115540;28;20413;-56
2023/07/14 01:44:31;;;;;;;4.30;2.60;;;18.40;1.00;;;;;;5117418;27;20425;-56
2023/07/14 01:46:57;;;;;;;2.50;2.17;;;18.50;1.00;;;;;;5116618;28;20440;-55
2023/07/14 01:49:34;;;;;;;2.20;1.83;;;18.40;1.00;;;;;;5134795;27;20183;-54
2023/07/14 01:52:01;;;;;;;4.30;2.27;;;18.30;1.00;;;;;;5138667;27;20416;-55
2023/07/14 01:54:33;;;;;;;2.20;2.00;;;18.30;1.00;;;;;;5116693;28;20925;-52
2023/07/14 01:57:01;;;;;;;3.20;2.00;;;18.30;1.00;;;;;;5113061;27;20416;-55
2023/07/14 01:59:33;;;;;;;3.17;1.90;;;18.30;1.00;;;;;;5119820;27;20776;-55
2023/07/14 02:02:00;;;;;;;2.63;2.20;;;18.20;1.00;;;;;;5120223;27;20760;-55
2023/07/14 02:04:37;;;;;;;3.23;2.20;;;18.20;1.00;;;;;;5120330;27;20443;-58
2023/07/14 02:07:02;;;;;;;7.77;2.40;;;18.20;1.00;;;;;;5137735;27;20731;-55
2023/07/14 02:09:29;;;;;;;3.80;2.50;;;18.20;1.00;;;;;;5137295;27;20504;-54
2023/07/14 02:12:02;;;;;;;2.23;2.03;;;18.20;1.00;;;;;;5138004;27;20182;-54
2023/07/14 02:14:38;;;;;;;3.30;2.90;;;18.10;1.00;;;;;;5136863;27;20811;-57
2023/07/14 02:17:06;;;;;;;5.33;3.10;;;18.10;1.00;;;;;;5137234;27;20428;-52
2023/07/14 02:19:31;;;;;;;3.73;2.77;;;18.10;1.00;;;;;;5116965;27;20413;-55
2023/07/14 02:21:58;;;;;;;5.40;2.70;;;18.00;1.00;;;;;;5115211;28;20425;-57
2023/07/14 02:24:25;;;;;;;4.70;2.30;;;18.00;1.00;;;;;;5116374;28;21015;-53
2023/07/14 02:27:02;;;;;;;4.13;2.53;;;18.00;1.00;;;;;;5137809;27;20437;-53
2023/07/14 02:29:29;;;;;;;2.67;2.47;;;18.00;1.00;;;;;;5116221;28;20787;-55
2023/07/14 02:32:22;;;;;;;2.90;2.20;;;18.00;1.00;;;;;;5114619;28;20612;-54
2023/07/14 02:34:56;;;;;;;3.23;2.27;;;18.00;1.00;;;;;;5137245;27;20468;-56
2023/07/14 02:37:43;;;;;;;2.50;2.30;;;17.90;1.00;;;;;;5115829;28;20836;-53
2023/07/14 02:40:09;;;;;;;2.97;2.40;;;17.90;1.00;;;;;;5129972;27;20423;-55
2023/07/14 02:42:39;;;;;;;3.43;2.30;;;17.90;1.00;;;;;;5116071;27;20440;-55
2023/07/14 02:45:07;;;;;;;6.80;2.60;;;17.90;1.00;;;;;;5137371;27;20433;-53
2023/07/14 02:47:36;;;;;;;3.37;2.30;;;17.90;1.00;;;;;;5136675;27;20479;-53
2023/07/14 02:50:02;;;;;;;2.80;2.43;;;17.80;1.00;;;;;;5114757;28;20479;-53
2023/07/14 02:52:28;;;;;;;2.80;2.60;;;17.80;1.00;;;;;;5133132;27;20408;-54
2023/07/14 02:54:53;;;;;;;3.80;2.37;;;17.80;1.00;;;;;;5136789;27;20477;-55
2023/07/14 02:57:19;;;;;;;2.67;2.33;;;17.80;1.00;;;;;;5135763;27;20175;-51
2023/07/14 02:59:44;;;;;;;2.57;2.37;;;17.80;1.00;;;;;;5116796;27;20183;-56
2023/07/14 03:02:10;;;;;;;2.80;2.47;;;17.70;1.00;;;;;;5136036;27;20183;-54
2023/07/14 03:04:36;;;;;;;4.00;3.07;;;17.70;1.00;;;;;;5133882;27;20179;-52
2023/07/14 03:07:02;;;;;;;3.00;2.70;;;17.80;1.00;;;;;;5134304;27;20261;-52
2023/07/14 03:09:27;;;;;;;5.20;2.73;;;17.80;1.00;;;;;;5135548;27;20433;-53
2023/07/14 03:11:53;;;;;;;2.50;2.20;;;17.90;1.00;;;;;;5135769;27;20459;-56
2023/07/14 03:14:19;;;;;;;4.00;2.60;;;17.80;1.00;;;;;;5135428;27;20295;-54
2023/07/14 03:16:44;;;;;;;3.40;2.53;;;17.80;1.00;;;;;;5136258;27;20191;-55
2023/07/14 03:19:10;;;;;;;2.77;2.57;;;17.70;1.00;;;;;;5135475;27;20490;-55
2023/07/14 03:21:35;;;;;;;3.43;2.70;;;17.60;1.00;;;;;;5137684;27;20214;-55
2023/07/14 03:24:01;;;;;;;3.70;3.10;;;17.60;4.20;;;;;;5136788;27;20186;-54
2023/07/14 03:26:27;;;;;;;4.03;3.10;;;17.50;17.70;;;;;;5136663;27;20195;-52
2023/07/14 03:28:52;;;;;;;3.80;3.40;;;17.50;22.30;;;;;;5136953;27;20187;-54
2023/07/14 03:31:18;;;;;;;4.57;2.90;;;17.50;26.20;;;;;;5136441;28;20214;-55
2023/07/14 03:33:43;;;;;;;2.73;2.53;;;17.50;27.00;;;;;;5136657;28;20182;-51
2023/07/14 03:36:12;;;;;;;4.70;2.73;;;17.50;30.80;;;;;;5135045;28;20569;-54
2023/07/14 03:38:43;;;;;;;2.80;2.50;;;17.50;29.60;;;;;;5134517;28;20223;-52
2023/07/14 03:41:10;;;;;;;5.00;2.97;;;17.50;30.50;;;;;;5136107;27;20433;-53
2023/07/14 03:43:35;;;;;;;3.43;2.67;;;17.50;34.90;;;;;;5139063;27;20666;-55
2023/07/14 03:46:01;;;;;;;4.33;2.63;;;17.50;34.50;;;;;;5138289;27;20428;-57
2023/07/14 03:48:26;;;;;;;3.50;2.53;;;17.60;35.30;;;;;;5139522;27;20179;-54
2023/07/14 03:50:52;;;;;;;3.90;2.80;;;17.60;32.00;;;;;;5138513;27;20183;-57
2023/07/14 03:53:18;;;;;;;5.23;3.10;;;17.50;34.30;;;;;;5139465;27;20536;-54
2023/07/14 03:55:47;;;;;;;2.93;2.37;;;17.60;31.30;;;;;;5138739;27;20491;-55
2023/07/14 03:58:12;;;;;;;2.97;2.67;;;17.60;30.80;;;;;;5116751;28;20248;-55
2023/07/14 04:00:38;;;;;;;3.93;3.20;;;17.60;30.80;;;;;;5137345;27;20416;-61
2023/07/14 04:03:04;;;;;;;2.93;2.63;;;17.60;30.20;;;;;;5137838;27;20467;-61
2023/07/14 04:05:30;;;;;;;4.30;2.93;;;17.70;24.00;;;;;;5137142;27;20179;-58
2023/07/14 04:07:55;;;;;;;4.50;3.67;;;17.80;17.10;;;;;;5136323;27;20491;-60
2023/07/14 04:10:21;;;;;;;3.67;3.17;;;17.90;12.30;;;;;;5136815;27;20433;-61
2023/07/14 04:12:48;;;;;;;4.00;3.20;;;17.90;4.70;;;;;;5137576;27;20265;-61
2023/07/14 04:15:13;;;;;;;2.80;2.57;;;18.00;1.00;;;;;;5137356;27;20301;-60
2023/07/14 04:17:40;;;;;;;4.67;2.70;;;18.10;1.00;;;;;;5137448;27;20951;-59
2023/07/14 04:20:06;;;;;;;3.50;3.20;;;18.10;1.00;;;;;;5136371;27;20175;-60
2023/07/14 04:22:33;;;;;;;3.80;3.10;;;18.20;1.00;;;;;;5136747;27;20423;-61
2023/07/14 04:24:58;;;;;;;3.63;3.00;;;18.30;1.00;;;;;;5137631;27;20417;-60
2023/07/14 04:27:28;;;;;;;3.77;3.37;;;18.40;1.00;;;;;;5138498;27;20504;-61
2023/07/14 04:29:54;;;;;;;3.17;2.90;;;18.40;1.00;;;;;;5138086;27;20199;-61
2023/07/14 04:32:20;;;;;;;3.67;3.17;;;18.50;1.00;;;;;;5137969;27;20496;-61
2023/07/14 04:34:46;;;;;;;3.77;2.80;;;18.50;1.00;;;;;;5137163;27;20222;-59
2023/07/14 04:37:11;;;;;;;3.03;2.60;;;18.50;1.00;;;;;;5137430;27;20254;-61
2023/07/14 04:39:37;;;;;;;3.17;2.67;;;18.50;1.00;;;;;;5138178;27;20535;-56
2023/07/14 04:42:03;;;;;;;4.23;2.93;;;18.50;1.00;;;;;;5117297;28;20179;-56
2023/07/14 04:44:29;;;;;;;4.63;3.17;;;18.50;1.00;;;;;;5135302;27;20274;-56
2023/07/14 04:46:55;;;;;;;4.37;3.13;;;18.50;1.00;;;;;;5135916;27;20539;-58
2023/07/14 04:49:20;;;;;;;3.63;3.33;;;18.60;1.00;;;;;;5138144;27;20204;-59
2023/07/14 04:51:46;;;;;;;4.13;3.20;;;18.60;1.00;;;;;;5136118;27;20431;-58
2023/07/14 04:54:12;;;;;;;3.50;3.17;;;18.70;1.00;;;;;;5136686;27;20179;-59
2023/07/14 04:56:39;;;;;;;2.60;2.40;;;18.80;1.00;;;;;;5135436;27;20419;-61
2023/07/14 04:59:06;;;;;;;5.47;3.13;;;18.80;1.00;;;;;;5135487;27;20179;-60
2023/07/14 05:01:32;;;;;;;3.80;3.17;;;18.90;1.00;;;;;;5134876;27;20568;-61
2023/07/14 05:03:57;;;;;;;3.03;2.73;;;19.00;1.00;;;;;;5135520;27;20428;-61
2023/07/14 05:06:23;;;;;;;3.97;2.73;;;19.10;1.00;;;;;;5135589;27;20541;-61
2023/07/14 05:08:49;;;;;;;3.17;2.87;;;19.10;1.00;;;;;;5135151;27;20397;-61
2023/07/14 05:11:14;;;;;;;3.80;3.40;;;19.30;1.00;;;;;;5136119;27;20568;-60
2023/07/14 05:13:40;;;;;;;3.60;3.30;;;19.30;1.00;;;;;;5117315;27;20518;-60
2023/07/14 05:16:06;;;;;;;6.20;3.17;;;19.40;1.00;;;;;;5134899;27;20583;-61
2023/07/14 05:18:31;;;;;;;3.57;3.23;;;19.50;1.00;;;;;;5134646;27;20179;-61
2023/07/14 05:21:04;;;;;;;3.80;3.43;;;19.60;1.00;;;;;;5135557;27;20183;-61
2023/07/14 05:23:30;;;;;;;3.83;2.80;;;19.70;1.00;;;;;;5115295;27;20202;-60
2023/07/14 05:25:56;;;;;;;4.40;3.43;;;19.80;1.00;;;;;;5127630;27;20857;-62
2023/07/14 05:28:23;;;;;;;3.23;2.93;;;19.80;1.00;;;;;;5123653;27;20532;-61
2023/07/14 05:30:50;;;;;;;3.47;2.67;;;19.90;1.00;;;;;;5114863;28;20436;-62
2023/07/14 05:33:16;;;;;;;3.57;3.27;;;19.90;1.00;;;;;;5134433;27;20544;-62
2023/07/14 05:35:43;;;;;;;3.70;3.40;;;20.00;1.00;;;;;;5125545;27;20481;-61
2023/07/14 05:38:09;;;;;;;2.93;2.73;;;20.00;1.00;;;;;;5116178;28;20422;-61
2023/07/14 05:40:35;;;;;;;3.63;2.73;;;20.10;1.00;;;;;;5113691;28;20864;-61
2023/07/14 05:43:00;;;;;;;3.30;2.93;;;20.20;1.00;;;;;;5111944;28;20263;-61
2023/07/14 05:45:26;;;;;;;4.03;3.23;;;20.30;1.00;;;;;;5112934;28;20184;-61
2023/07/14 05:47:51;;;;;;;3.50;3.20;;;20.50;1.00;;;;;;5112749;28;20191;-61
2023/07/14 05:50:17;;;;;;;5.27;3.33;;;20.60;1.00;;;;;;5113006;28;20180;-61
2023/07/14 05:52:44;;;;;;;4.93;3.07;;;20.70;1.00;;;;;;5112143;28;20187;-61
2023/07/14 05:55:10;;;;;;;4.27;3.23;;;20.70;1.00;;;;;;5113589;28;20218;-61
2023/07/14 05:57:36;;;;;;;4.67;3.73;;;20.70;1.00;;;;;;5113175;28;20424;-60
2023/07/14 06:00:12;;;;;;;5.33;2.90;;;20.70;1.00;;;;;;5114055;28;20430;-59
2023/07/14 06:02:39;;;;;;;4.80;3.33;;;20.80;1.00;;;;;;5111350;28;20208;-58
2023/07/14 06:05:12;;;;;;;5.57;2.80;;;20.80;1.00;;;;;;5111187;28;20452;-59
2023/07/14 06:07:38;;;;;;;3.13;2.50;;;20.80;1.00;;;;;;5112716;28;20517;-59
2023/07/14 06:10:05;;;;;;;4.30;2.60;;;20.90;1.00;;;;;;5112876;28;20422;-59
2023/07/14 06:12:30;;;;;;;4.57;2.87;;;20.90;1.00;;;;;;5089022;28;20472;-59
2023/07/14 06:14:56;;;;;;;2.50;2.30;;;21.00;1.00;;;;;;5109219;28;20869;-60
2023/07/14 06:17:21;;;;;;;5.37;2.90;;;21.00;1.00;;;;;;5111939;28;20240;-60
2023/07/14 06:19:47;;;;;;;5.03;2.73;;;21.10;1.00;;;;;;5112590;28;20257;-59
2023/07/14 06:22:14;;;;;;;4.20;2.93;;;21.20;1.00;;;;;;5112404;28;20457;-59
2023/07/14 06:24:40;;;;;;;3.43;3.00;;;21.30;1.00;;;;;;5112369;28;20175;-59
2023/07/14 06:27:06;;;;;;;5.90;3.00;;;21.30;1.00;;;;;;5112006;28;20468;-59
2023/07/14 06:29:33;;;;;;;3.93;2.97;;;21.30;1.00;;;;;;5112584;28;20506;-60
2023/07/14 06:31:59;;;;;;;5.23;3.10;;;21.30;1.00;;;;;;5113251;28;20441;-59
2023/07/14 06:34:25;;;;;;;4.60;2.57;;;21.30;1.00;;;;;;5110949;28;20755;-58
2023/07/14 06:36:51;;;;;;;4.10;2.40;;;21.40;1.00;;;;;;5114025;28;20477;-58
2023/07/14 06:39:17;;;;;;;3.50;2.80;;;21.40;1.00;;;;;;5114735;28;20540;-58
2023/07/14 06:41:43;;;;;;;5.43;2.73;;;21.20;1.00;;;;;;5113723;28;20259;-59
2023/07/14 06:44:09;;;;;;;2.73;2.20;;;21.20;1.00;;;;;;5112328;28;20615;-58
2023/07/14 06:46:35;;;;;;;3.83;2.67;;;21.20;1.00;;;;;;5112954;28;20418;-60
2023/07/14 06:49:01;;;;;;;5.67;2.80;;;21.30;1.00;;;;;;5114778;28;20284;-59
2023/07/14 06:51:26;;;;;;;3.23;2.60;;;21.30;1.00;;;;;;5091515;28;20172;-60
2023/07/14 06:53:52;;;;;;;3.30;2.40;;;21.40;1.00;;;;;;5112195;28;20532;-61
2023/07/14 06:56:18;;;;;;;4.93;2.20;;;21.40;1.00;;;;;;5112283;28;20195;-60
2023/07/14 06:58:43;;;;;;;4.73;2.30;;;21.60;1.00;;;;;;5113370;28;20195;-61
2023/07/14 07:01:09;;;;;;;4.20;2.17;;;21.70;1.00;;;;;;5113257;28;20445;-61
2023/07/14 07:03:35;;;;;;;3.97;2.60;;;21.80;1.00;;;;;;5113132;28;20262;-59
2023/07/14 07:06:00;;;;;;;3.97;2.63;;;21.70;1.00;;;;;;5111709;28;20290;-58
2023/07/14 07:08:26;;;;;;;5.97;2.30;;;21.80;1.00;;;;;;5112146;28;20235;-60
2023/07/14 07:10:52;;;;;;;4.30;2.40;;;22.00;1.00;;;;;;5111878;28;20183;-60
2023/07/14 07:13:18;;;;;;;2.20;1.97;;;22.10;1.00;;;;;;5111936;28;20206;-59
2023/07/14 07:15:44;;;;;;;3.03;2.03;;;22.00;1.00;;;;;;5112436;28;20580;-59
2023/07/14 07:18:09;;;;;;;2.50;2.30;;;22.10;1.00;;;;;;5091692;28;20434;-59
2023/07/14 07:20:41;;;;;;;3.87;2.57;;;22.10;1.00;;;;;;5110164;28;20184;-59
2023/07/14 07:23:07;;;;;;;3.10;2.10;;;22.20;1.00;;;;;;5090040;28;20196;-59
2023/07/14 07:25:33;;;;;;;4.60;2.60;;;22.40;1.00;;;;;;5110226;28;20629;-59
2023/07/14 07:27:58;;;;;;;3.77;2.40;;;22.70;1.00;;;;;;5092068;28;20440;-58
2023/07/14 07:30:25;;;;;;;5.93;2.10;;;22.90;1.00;;;;;;5109637;28;20187;-59
2023/07/14 07:32:52;;;;;;;3.67;2.27;;;23.10;1.00;;;;;;5113947;28;20259;-59
2023/07/14 07:35:18;;;;;;;3.40;2.60;;;23.20;1.00;;;;;;5114409;28;20465;-60
2023/07/14 07:37:44;;;;;;;2.60;2.30;;;23.20;1.00;;;;;;5114187;28;20483;-59
2023/07/14 07:40:11;;;;;;;3.67;2.57;;;23.30;1.00;;;;;;5113508;28;20417;-60
2023/07/14 07:42:37;;;;;;;3.80;2.33;;;23.30;1.00;;;;;;5112742;28;20449;-59
2023/07/14 07:45:04;;;;;;;4.23;2.20;;;23.50;1.00;;;;;;5112998;28;20430;-59
2023/07/14 07:47:29;;;;;;;6.57;2.33;;;23.60;1.00;;;;;;5110998;28;20882;-59
2023/07/14 07:49:55;;;;;;;3.20;2.43;;;23.80;1.00;;;;;;5110544;28;20556;-57
2023/07/14 07:52:20;;;;;;;6.10;2.77;;;24.00;1.00;;;;;;5112410;28;20438;-57
2023/07/14 07:54:46;;;;;;;4.60;2.30;;;24.10;1.00;;;;;;5111153;28;20457;-56
2023/07/14 07:57:12;;;;;;;3.27;2.43;;;24.10;1.00;;;;;;5110034;28;20187;-56
2023/07/14 07:59:37;;;;;;;8.07;2.47;;;24.10;1.00;;;;;;5109359;28;20186;-57
2023/07/14 08:02:04;;;;;;;3.30;2.77;;;24.20;1.00;;;;;;5109601;28;20464;-56
2023/07/14 08:04:29;;;;;;;3.37;2.70;;;24.30;1.00;;;;;;5109894;28;20168;-57
2023/07/14 08:06:55;;;;;;;3.40;2.37;;;24.20;1.00;;;;;;5112664;28;20545;-58
2023/07/14 08:09:21;;;;;;;3.90;2.13;;;24.20;1.00;;;;;;5112701;28;20195;-57
2023/07/14 08:11:47;;;;;;;2.90;1.97;;;24.20;1.00;;;;;;5110828;28;20241;-55
2023/07/14 08:14:18;;;;;;;4.73;2.23;;;24.30;1.00;;;;;;5090467;28;20359;-55
2023/07/14 08:16:44;;;;;;;3.33;2.50;;;24.50;1.00;;;;;;5111514;28;20649;-57
2023/07/14 08:19:10;;;;;;;4.57;2.20;;;24.60;1.00;;;;;;5131452;28;20440;-55
2023/07/14 08:21:37;;;;;;;2.80;2.27;;;24.90;1.00;;;;;;5133053;28;20467;-58
2023/07/14 08:24:04;;;;;;;2.37;2.07;;;24.90;1.00;;;;;;5133471;28;20467;-56
2023/07/14 08:26:32;;;;;;;5.73;2.30;;;25.00;1.00;;;;;;5133272;28;20619;-57
2023/07/14 08:28:58;;;;;;;4.57;2.20;;;25.10;1.00;;;;;;5134773;27;20435;-56
2023/07/14 08:31:24;;;;;;;2.80;2.00;;;25.20;1.00;;;;;;5137574;27;20405;-58
2023/07/14 08:33:51;;;;;;;3.60;2.03;;;25.40;1.00;;;;;;5136719;27;20258;-56
2023/07/14 08:36:17;;;;;;;4.03;2.33;;;25.60;1.00;;;;;;5135846;27;20217;-59
2023/07/14 08:38:43;;;;;;;2.70;2.30;;;25.60;1.00;;;;;;5116025;27;20870;-55
2023/07/14 08:41:20;;;;;;;5.57;2.93;;;25.40;1.00;;;;;;5136586;27;20436;-55
2023/07/14 08:44:10;;;;;;;2.53;2.10;;;25.20;1.00;;;;;;5135458;27;20470;-57
2023/07/14 08:46:46;;;;;;;2.93;2.40;;;25.30;1.00;;;;;;5137186;27;20444;-57
2023/07/14 08:49:21;;;;;;;3.77;2.33;;;25.50;1.00;;;;;;5135617;27;20704;-57
2023/07/14 08:51:51;;;;;;;2.63;2.23;;;25.60;1.00;;;;;;5134356;27;20872;-58
2023/07/14 08:54:19;;;;;;;4.80;2.37;;;25.90;1.00;;;;;;5134260;27;20508;-58
2023/07/14 08:56:46;;;;;;;2.90;2.60;;;26.10;1.00;;;;;;5116174;27;20417;-57
2023/07/14 08:59:17;;;;;;;4.43;2.40;;;26.10;1.00;;;;;;5135365;27;21043;-56
2023/07/14 09:01:48;;;;;;;4.53;2.50;;;26.20;1.00;;;;;;5133943;27;20496;-54
2023/07/14 09:04:34;;;;;;;2.97;2.67;;;26.20;1.00;;;;;;5114640;28;21019;-57
2023/07/14 09:07:01;;;;;;;3.93;2.63;;;26.20;1.00;;;;;;5116714;27;20464;-59
2023/07/14 09:09:29;;;;;;;3.17;2.33;;;26.20;1.00;;;;;;5134895;27;20732;-56
2023/07/14 09:11:58;;;;;;;5.53;2.37;;;26.20;1.00;;;;;;5117224;27;20516;-54
2023/07/14 09:14:32;;;;;;;3.80;2.43;;;26.30;1.00;;;;;;5132302;27;20420;-58
2023/07/14 09:17:09;;;;;;;3.33;2.40;;;26.40;1.00;;;;;;5132396;27;20416;-57
2023/07/14 09:20:06;;;;;;;3.53;2.20;;;26.40;1.00;;;;;;5113689;27;20986;-59
2023/07/14 09:22:50;;;;;;;3.70;2.10;;;26.50;1.00;;;;;;5111667;27;20689;-57
2023/07/14 09:25:37;;;;;;;3.70;2.67;;;26.80;1.00;;;;;;5133095;27;20412;-59
2023/07/14 09:28:07;;;;;;;2.20;1.93;;;27.10;1.00;;;;;;5134843;27;20503;-58
2023/07/14 09:30:34;;;;;;;3.60;2.00;;;27.30;1.00;;;;;;5115191;27;20486;-57
2023/07/14 09:33:03;;;;;;;3.00;2.67;;;27.50;1.00;;;;;;5113674;28;20494;-59
2023/07/14 09:35:30;;;;;;;3.00;2.30;;;27.80;1.00;;;;;;5131181;27;20456;-58
2023/07/14 09:38:25;;;;;;;6.30;2.53;;;28.00;1.00;;;;;;5133060;27;20429;-58
2023/07/14 09:40:56;;;;;;;6.00;2.40;;;28.00;1.00;;;;;;5106166;27;20440;-59
2023/07/14 09:43:22;;;;;;;4.50;2.53;;;27.80;1.00;;;;;;5113202;28;20410;-59
2023/07/14 09:45:53;;;;;;;3.43;2.77;;;27.60;1.00;;;;;;5136166;27;20451;-59
2023/07/14 09:48:22;;;;;;;6.80;2.50;;;27.60;1.00;;;;;;5134645;27;20175;-59
2023/07/14 09:50:48;;;;;;;4.93;2.70;;;27.40;1.00;;;;;;5135791;27;20759;-58
2023/07/14 09:53:14;;;;;;;3.77;3.10;;;27.20;1.00;;;;;;5135386;27;20468;-58
2023/07/14 09:55:56;;;;;;;3.50;2.60;;;27.00;1.00;;;;;;5134573;27;20211;-58
2023/07/14 09:58:24;;;;;;;10.67;2.67;;;26.80;1.00;;;;;;5135158;27;20177;-59
2023/07/14 10:00:50;;;;;;;6.07;2.83;;;26.70;1.00;;;;;;5134715;27;20861;-56
2023/07/14 10:03:17;;;;;;;3.63;2.63;;;26.50;1.00;;;;;;5134008;27;20552;-59
2023/07/14 10:05:47;;;;;;;3.03;2.53;;;26.30;1.00;;;;;;5133994;27;20423;-59
2023/07/14 10:08:34;;;;;;;3.00;2.60;;;26.10;1.00;;;;;;5132803;27;20946;-58
2023/07/14 10:11:16;;;;;;;2.60;2.20;;;26.10;1.00;;;;;;5112662;28;20560;-58
2023/07/14 10:13:52;;;;;;;2.73;2.10;;;25.90;1.00;;;;;;5134120;27;20424;-59
2023/07/14 10:16:19;;;;;;;3.77;2.50;;;26.00;1.00;;;;;;5114072;28;20471;-58
2023/07/14 10:19:00;;;;;;;5.37;2.87;;;26.20;1.00;;;;;;5116129;27;20425;-59
2023/07/14 10:21:34;;;;;;;3.13;2.57;;;26.30;1.00;;;;;;5136453;27;20723;-58
2023/07/14 10:24:04;;;;;;;7.40;2.77;;;26.30;1.00;;;;;;5133261;27;20916;-58
2023/07/14 10:26:34;;;;;;;3.10;2.37;;;26.10;1.00;;;;;;5132940;27;20842;-58
2023/07/14 10:29:04;;;;;;;5.13;2.47;;;26.10;1.00;;;;;;5111171;28;20417;-59
2023/07/14 10:32:04;;;;;;;5.13;2.43;;;26.30;1.00;;;;;;5130587;27;20476;-56
2023/07/14 10:34:46;;;;;;;3.80;2.23;;;26.50;1.00;;;;;;5092807;28;20425;-58
2023/07/14 10:37:27;;;;;;;3.10;2.40;;;26.90;1.00;;;;;;5109341;28;20804;-56
2023/07/14 10:40:26;;;;;;;2.90;2.60;;;27.30;1.00;;;;;;5130604;27;20413;-57
2023/07/14 10:42:56;;;;;;;2.67;2.00;;;27.50;1.00;;;;;;5130863;27;20695;-59
2023/07/14 10:45:22;;;;;;;3.23;2.50;;;27.30;1.00;;;;;;5111064;28;20831;-53
2023/07/14 10:48:08;;;;;;;5.40;2.57;;;27.30;1.00;;;;;;5115443;27;20443;-58
2023/07/14 10:50:43;;;;;;;3.47;2.37;;;27.50;1.00;;;;;;5113278;27;20421;-58
2023/07/14 10:53:22;;;;;;;4.37;2.33;;;27.70;1.00;;;;;;5112142;28;20913;-58
2023/07/14 10:55:49;;;;;;;4.30;2.20;;;27.90;1.00;;;;;;5133369;27;20880;-58
2023/07/14 10:58:30;;;;;;;3.00;2.60;;;28.10;1.00;;;;;;5110095;28;20418;-58
2023/07/14 11:01:00;;;;;;;2.27;2.00;;;28.00;1.00;;;;;;5122526;27;20715;-57
2023/07/14 11:03:44;;;;;;;5.63;2.80;;;27.90;1.00;;;;;;5107987;28;20786;-58
2023/07/14 11:06:36;;;;;;;4.03;2.77;;;27.60;1.00;;;;;;5107373;28;20461;-56
2023/07/14 11:09:02;;;;;;;3.10;2.80;;;27.30;1.00;;;;;;5106702;27;20453;-58
2023/07/14 11:11:28;;;;;;;2.80;2.60;;;27.30;1.00;;;;;;5130381;27;20420;-57
2023/07/14 11:13:53;;;;;;;4.17;2.43;;;27.30;1.00;;;;;;5128341;27;20761;-55
2023/07/14 11:16:33;;;;;;;3.50;2.07;;;27.20;1.00;;;;;;5130744;27;20302;-56
2023/07/14 11:19:09;;;;;;;4.33;2.77;;;27.30;1.00;;;;;;5111178;28;20206;-58
2023/07/14 11:21:48;;;;;;;3.93;2.50;;;27.60;1.00;;;;;;5110962;27;20512;-57
2023/07/14 11:24:20;;;;;;;3.93;2.67;;;27.70;1.00;;;;;;5112346;28;20471;-58
2023/07/14 11:27:00;;;;;;;3.73;2.57;;;27.60;1.00;;;;;;5130021;27;20438;-58
2023/07/14 11:29:32;;;;;;;4.70;2.90;;;27.50;1.00;;;;;;5111650;28;20631;-53
2023/07/14 11:32:00;;;;;;;3.80;2.80;;;27.80;1.00;;;;;;5113509;28;20421;-56
2023/07/14 11:34:33;;;;;;;3.00;2.30;;;28.30;1.00;;;;;;5111471;28;20814;-58
2023/07/14 11:36:59;;;;;;;4.77;2.70;;;28.40;1.00;;;;;;5129871;28;20808;-57
2023/07/14 11:39:39;;;;;;;2.63;2.43;;;28.60;1.00;;;;;;5128899;28;20426;-59
2023/07/14 11:42:09;;;;;;;3.37;2.63;;;28.70;1.00;;;;;;5129777;28;20210;-58
2023/07/14 11:44:35;;;;;;;2.57;2.37;;;28.90;1.00;;;;;;5110876;28;20421;-59
2023/07/14 11:47:01;;;;;;;3.37;2.37;;;29.20;1.00;;;;;;5111303;28;20683;-58
2023/07/14 11:49:36;;;;;;;5.60;2.90;;;29.30;1.00;;;;;;5126704;28;20458;-59
2023/07/14 11:52:15;;;;;;;2.23;1.97;;;29.20;1.00;;;;;;5129848;28;20182;-58
2023/07/14 11:54:57;;;;;;;2.73;2.43;;;29.50;1.00;;;;;;5113051;28;20694;-59
2023/07/14 11:57:22;;;;;;;3.63;2.50;;;29.90;1.00;;;;;;5114355;28;20827;-59
2023/07/14 12:00:09;;;;;;;5.60;2.50;;;29.70;1.00;;;;;;5131751;28;20430;-58
2023/07/14 12:02:35;;;;;;;3.20;2.77;;;29.50;1.00;;;;;;5133378;27;20171;-59
2023/07/14 12:05:27;;;;;;;3.00;2.60;;;29.00;1.00;;;;;;5137636;27;20443;-59
2023/07/14 12:08:04;;;;;;;5.03;2.60;;;28.90;1.00;;;;;;5137815;27;20238;-57
2023/07/14 12:10:42;;;;;;;2.70;2.50;;;29.00;1.00;;;;;;5138314;27;20387;-59
2023/07/14 12:13:22;;;;;;;3.13;2.50;;;29.10;1.00;;;;;;5135703;27;20447;-57
2023/07/14 12:16:11;;;;;;;4.20;2.30;;;29.40;1.00;;;;;;5116909;27;20849;-59
2023/07/14 12:18:55;;;;;;;2.83;2.40;;;29.50;1.00;;;;;;5131503;27;20436;-58
2023/07/14 12:21:32;;;;;;;4.20;3.07;;;30.00;1.00;;;;;;5113587;27;20435;-59
2023/07/14 12:24:15;;;;;;;3.13;2.60;;;30.50;1.00;;;;;;5133183;27;20426;-59
2023/07/14 12:27:07;;;;;;;6.17;2.40;;;30.70;1.00;;;;;;5116351;27;20792;-60
2023/07/14 12:29:34;;;;;;;3.87;3.47;;;30.90;1.00;;;;;;5104486;28;20420;-60
2023/07/14 12:32:02;;;;;;;2.47;2.27;;;31.10;1.00;;;;;;5116302;28;20623;-59
2023/07/14 12:34:31;;;;;;;3.90;3.13;;;31.30;1.00;;;;;;5114570;28;20417;-58
2023/07/14 12:36:59;;;;;;;2.93;2.63;;;31.70;1.00;;;;;;5115373;28;20680;-59
2023/07/14 12:39:25;;;;;;;3.07;2.50;;;32.50;1.00;;;;;;5114921;28;20396;-58
2023/07/14 12:41:53;;;;;;;3.43;2.80;;;33.30;1.00;;;;;;5114368;28;20578;-58
2023/07/14 12:44:31;;;;;;;3.33;2.80;;;33.80;1.00;;;;;;5114464;28;20457;-59
2023/07/14 12:46:57;;;;;;;8.13;2.73;;;33.70;1.00;;;;;;5097768;28;20611;-59
2023/07/14 12:49:42;;;;;;;3.47;3.17;;;33.10;1.00;;;;;;5094304;28;20400;-57
2023/07/14 12:52:17;;;;;;;3.20;2.60;;;32.80;1.00;;;;;;5093019;28;20414;-58
2023/07/14 12:54:45;;;;;;;3.23;2.93;;;32.60;1.00;;;;;;5094030;28;20729;-58
2023/07/14 12:57:16;;;;;;;3.13;2.83;;;32.50;1.00;;;;;;5113140;28;20432;-59
2023/07/14 12:59:48;;;;;;;4.63;2.93;;;32.10;1.00;;;;;;5113417;28;20477;-59
2023/07/14 13:02:13;;;;;;;3.47;2.50;;;31.50;1.00;;;;;;5113915;28;20422;-59
2023/07/14 13:04:39;;;;;;;3.90;2.37;;;31.30;1.00;;;;;;5112311;28;20468;-59
2023/07/14 13:07:11;;;;;;;3.63;3.33;;;31.20;1.00;;;;;;5112382;28;20588;-59
2023/07/14 13:09:37;;;;;;;5.80;2.43;;;30.90;1.00;;;;;;5113812;28;20428;-59